Time;durP1;ratioP1;P1;durP2;ratioP2;P2;SDS_P1;SDS_P2;PMS_P1;PMS_P2;Temp;Humidity;BMP_temperature;BMP_pressure;BME280_temperature;BME280_humidity;BME280_pressure;Samples;Min_cycle;Max_cycle;Signal;HPM_P1;HPM_P2
2023/10/23 00:00:08;;;;;;;;;;;;;;;;;;1921998;28;7009;-64
2023/10/23 00:01:05;;;;;;;;;;;;;;;;;;1919171;28;7112;-64
2023/10/23 00:02:04;;;;;;;;;;;;;;;;;;1922150;28;7009;-65
2023/10/23 00:03:02;;;;;;;;;;;;;;;;;;1921332;28;8017;-65
2023/10/23 00:04:00;;;;;;;;;;;;;;;;;;1921561;28;7013;-64
2023/10/23 00:04:58;;;;;;;;;;;;;;;;;;1921669;28;8050;-64
2023/10/23 00:05:55;;;;;;;;;;;;;;;;;;1921826;28;7013;-64
2023/10/23 00:06:53;;;;;;;;;;;;;;;;;;1920407;28;7010;-64
2023/10/23 00:07:51;;;;;;;;;;;;;;;;;;1918853;28;7264;-64
2023/10/23 00:08:48;;;;;;;;;;;;;;;;;;1922806;28;7009;-64
2023/10/23 00:09:45;;;;;;;;;;;;;;;;;;1921917;28;7370;-64
2023/10/23 00:10:44;;;;;;;;;;;;;;;;;;1922032;28;7295;-65
2023/10/23 00:11:44;;;;;;;;;;;;;;;;;;1922465;28;7096;-65
2023/10/23 00:12:42;;;;;;;;;;;;;;;;;;1929634;28;7009;-65
2023/10/23 00:13:39;;;;;;;;;;;;;;;;;;1927073;28;7009;-64
2023/10/23 00:14:37;;;;;;;;;;;;;;;;;;1929130;28;7088;-64
2023/10/23 00:15:34;;;;;;;;;;;;;;;;;;1929205;28;8196;-65
2023/10/23 00:16:32;;;;;;;;;;;;;;;;;;1929063;28;7088;-64
2023/10/23 00:17:29;;;;;;;;;;;;;;;;;;1926355;28;7088;-64
2023/10/23 00:18:27;;;;;;;;;;;;;;;;;;1930258;28;7282;-65
2023/10/23 00:19:24;;;;;;;;;;;;;;;;;;1929093;28;7009;-64
2023/10/23 00:20:22;;;;;;;;;;;;;;;;;;1928728;28;7920;-64
2023/10/23 00:21:19;;;;;;;;;;;;;;;;;;1929482;28;7123;-65
2023/10/23 00:22:17;;;;;;;;;;;;;;;;;;1928942;28;7184;-64
2023/10/23 00:23:14;;;;;;;;;;;;;;;;;;1927001;28;7013;-65
2023/10/23 00:24:12;;;;;;;;;;;;;;;;;;1928975;28;7124;-65
2023/10/23 00:25:09;;;;;;;;;;;;;;;;;;1929813;28;7005;-65
2023/10/23 00:26:06;;;;;;;;;;;;;;;;;;1929341;28;7013;-65
2023/10/23 00:27:04;;;;;;;;;;;;;;;;;;1927931;28;7009;-64
2023/10/23 00:28:01;;;;;;;;;;;;;;;;;;1929139;28;7170;-65
2023/10/23 00:29:00;;;;;;;;;;;;;;;;;;1929963;28;8207;-64
2023/10/23 00:29:58;;;;;;;;;;;;;;;;;;1928979;28;7092;-66
2023/10/23 00:30:56;;;;;;;;;;;;;;;;;;1929440;28;9026;-64
2023/10/23 00:31:54;;;;;;;;;;;;;;;;;;1930285;28;7012;-64
2023/10/23 00:32:51;;;;;;;;;;;;;;;;;;1930273;28;8150;-64
2023/10/23 00:33:49;;;;;;;;;;;;;;;;;;1929407;28;7025;-64
2023/10/23 00:34:46;;;;;;;;;;;;;;;;;;1921216;28;7112;-64
2023/10/23 00:35:44;;;;;;;;;;;;;;;;;;1921397;28;7116;-64
2023/10/23 00:36:42;;;;;;;;;;;;;;;;;;1928419;28;7575;-64
2023/10/23 00:37:39;;;;;;;;;;;;;;;;;;1929105;28;7049;-64
2023/10/23 00:38:36;;;;;;;;;;;;;;;;;;1929548;28;7089;-65
2023/10/23 00:39:34;;;;;;;;;;;;;;;;;;1929841;28;7013;-64
2023/10/23 00:40:31;;;;;;;;;;;;;;;;;;1928755;28;7166;-65
2023/10/23 00:41:29;;;;;;;;;;;;;;;;;;1928780;28;7009;-64
2023/10/23 00:42:26;;;;;;;;;;;;;;;;;;1928721;28;8042;-64
2023/10/23 00:43:24;;;;;;;;;;;;;;;;;;1929830;28;7211;-64
2023/10/23 00:44:21;;;;;;;;;;;;;;;;;;1929878;28;7088;-65
2023/10/23 00:45:19;;;;;;;;;;;;;;;;;;1929156;28;8054;-64
2023/10/23 00:46:20;;;;;;;;;;;;;;;;;;1928971;28;7073;-64
2023/10/23 00:47:18;;;;;;;;;;;;;;;;;;1928151;28;7049;-65
2023/10/23 00:48:19;;;;;;;;;;;;;;;;;;1927984;28;7088;-65
2023/10/23 00:49:17;;;;;;;;;;;;;;;;;;1928010;28;8039;-64
2023/10/23 00:50:14;;;;;;;;;;;;;;;;;;1929297;28;7021;-64
2023/10/23 00:51:12;;;;;;;;;;;;;;;;;;1928643;28;7024;-64
2023/10/23 00:52:10;;;;;;;;;;;;;;;;;;1927352;28;7009;-64
2023/10/23 00:53:07;;;;;;;;;;;;;;;;;;1925996;28;7013;-64
2023/10/23 00:54:06;;;;;;;;;;;;;;;;;;1922076;28;8039;-64
2023/10/23 00:55:03;;;;;;;;;;;;;;;;;;1925946;28;7307;-64
2023/10/23 00:56:04;;;;;;;;;;;;;;;;;;1919670;28;7473;-64
2023/10/23 00:57:03;;;;;;;;;;;;;;;;;;1919571;28;7005;-64
2023/10/23 00:58:00;;;;;;;;;;;;;;;;;;1927179;28;7013;-64
2023/10/23 00:58:58;;;;;;;;;;;;;;;;;;1927443;28;7013;-64
2023/10/23 00:59:55;;;;;;;;;;;;;;;;;;1927775;28;7013;-65
2023/10/23 01:00:57;;;;;;;;;;;;;;;;;;1928030;28;8086;-65
2023/10/23 01:01:56;;;;;;;;;;;;;;;;;;1922293;28;7013;-64
2023/10/23 01:02:53;;;;;;;;;;;;;;;;;;1927061;28;7046;-64
2023/10/23 01:03:51;;;;;;;;;;;;;;;;;;1927945;28;7338;-64
2023/10/23 01:04:50;;;;;;;;;;;;;;;;;;1928425;28;7017;-65
2023/10/23 01:05:48;;;;;;;;;;;;;;;;;;1925303;28;7029;-65
2023/10/23 01:06:45;;;;;;;;;;;;;;;;;;1925897;28;8350;-66
2023/10/23 01:07:43;;;;;;;;;;;;;;;;;;1928298;28;7046;-65
2023/10/23 01:08:41;;;;;;;;;;;;;;;;;;1928119;28;7021;-64
2023/10/23 01:09:39;;;;;;;;;;;;;;;;;;1927781;28;7016;-64
2023/10/23 01:10:36;;;;;;;;;;;;;;;;;;1927752;28;7084;-64
2023/10/23 01:11:34;;;;;;;;;;;;;;;;;;1927262;28;7088;-64
2023/10/23 01:12:31;;;;;;;;;;;;;;;;;;1927105;28;7108;-64
2023/10/23 01:13:29;;;;;;;;;;;;;;;;;;1925672;28;7041;-65
2023/10/23 01:14:26;;;;;;;;;;;;;;;;;;1925072;28;7223;-64
2023/10/23 01:15:24;;;;;;;;;;;;;;;;;;1927890;28;7116;-64
2023/10/23 01:16:21;;;;;;;;;;;;;;;;;;1927640;28;7041;-64
2023/10/23 01:17:18;;;;;;;;;;;;;;;;;;1928628;28;7044;-64
2023/10/23 01:18:16;;;;;;;;;;;;;;;;;;1927275;28;7013;-64
2023/10/23 01:19:13;;;;;;;;;;;;;;;;;;1927578;28;7013;-64
2023/10/23 01:20:12;;;;;;;;;;;;;;;;;;1927341;28;7323;-64
2023/10/23 01:21:09;;;;;;;;;;;;;;;;;;1927570;28;7038;-64
2023/10/23 01:22:07;;;;;;;;;;;;;;;;;;1928191;28;7093;-64
2023/10/23 01:23:04;;;;;;;;;;;;;;;;;;1928229;28;7138;-64
2023/10/23 01:24:05;;;;;;;;;;;;;;;;;;1927447;28;7009;-64
2023/10/23 01:25:03;;;;;;;;;;;;;;;;;;1917548;28;7009;-65
2023/10/23 01:26:00;;;;;;;;;;;;;;;;;;1915143;28;7148;-65
2023/10/23 01:26:58;;;;;;;;;;;;;;;;;;1923563;28;7046;-65
2023/10/23 01:27:55;;;;;;;;;;;;;;;;;;1926891;28;7128;-64
2023/10/23 01:28:53;;;;;;;;;;;;;;;;;;1927340;28;7342;-64
2023/10/23 01:29:50;;;;;;;;;;;;;;;;;;1928064;28;7088;-64
2023/10/23 01:30:47;;;;;;;;;;;;;;;;;;1920246;28;7025;-65
2023/10/23 01:31:45;;;;;;;;;;;;;;;;;;1924787;28;7013;-64
2023/10/23 01:32:42;;;;;;;;;;;;;;;;;;1922507;28;7073;-65
2023/10/23 01:33:40;;;;;;;;;;;;;;;;;;1924088;28;7013;-64
2023/10/23 01:34:38;;;;;;;;;;;;;;;;;;1924309;28;7009;-64
2023/10/23 01:35:36;;;;;;;;;;;;;;;;;;1927988;28;7013;-65
2023/10/23 01:36:35;;;;;;;;;;;;;;;;;;1927673;28;7040;-64
2023/10/23 01:37:33;;;;;;;;;;;;;;;;;;1919870;28;7013;-64
2023/10/23 01:38:30;;;;;;;;;;;;;;;;;;1928041;28;7009;-64
2023/10/23 01:39:28;;;;;;;;;;;;;;;;;;1928127;28;7017;-65
2023/10/23 01:40:25;;;;;;;;;;;;;;;;;;1927361;28;7013;-64
2023/10/23 01:41:23;;;;;;;;;;;;;;;;;;1919047;28;7117;-65
2023/10/23 01:42:20;;;;;;;;;;;;;;;;;;1920055;28;7963;-64
2023/10/23 01:43:18;;;;;;;;;;;;;;;;;;1921241;28;7171;-64
2023/10/23 01:44:15;;;;;;;;;;;;;;;;;;1919883;28;7009;-64
2023/10/23 01:45:12;;;;;;;;;;;;;;;;;;1923158;28;7113;-64
2023/10/23 01:46:10;;;;;;;;;;;;;;;;;;1927750;28;7009;-65
2023/10/23 01:47:07;;;;;;;;;;;;;;;;;;1924366;28;7014;-66
2023/10/23 01:48:05;;;;;;;;;;;;;;;;;;1927423;28;7117;-65
2023/10/23 01:49:02;;;;;;;;;;;;;;;;;;1926999;28;7341;-65
2023/10/23 01:50:00;;;;;;;;;;;;;;;;;;1927931;28;7077;-65
2023/10/23 01:51:00;;;;;;;;;;;;;;;;;;1927066;28;7009;-64
2023/10/23 01:51:57;;;;;;;;;;;;;;;;;;1927358;28;7088;-64
2023/10/23 01:52:54;;;;;;;;;;;;;;;;;;1927690;28;7009;-65
2023/10/23 01:53:52;;;;;;;;;;;;;;;;;;1924113;28;7014;-65
2023/10/23 01:54:50;;;;;;;;;;;;;;;;;;1927542;28;7104;-65
2023/10/23 01:55:47;;;;;;;;;;;;;;;;;;1927295;28;7037;-64
2023/10/23 01:56:45;;;;;;;;;;;;;;;;;;1928088;28;7013;-64
2023/10/23 01:57:42;;;;;;;;;;;;;;;;;;1927432;28;8012;-65
2023/10/23 01:58:40;;;;;;;;;;;;;;;;;;1928030;28;7033;-64
2023/10/23 01:59:38;;;;;;;;;;;;;;;;;;1927317;28;7057;-63
2023/10/23 02:00:35;;;;;;;;;;;;;;;;;;1926197;28;7025;-64
2023/10/23 02:01:37;;;;;;;;;;;;;;;;;;1927315;28;7017;-63
2023/10/23 02:02:35;;;;;;;;;;;;;;;;;;1927480;28;7042;-64
2023/10/23 02:03:32;;;;;;;;;;;;;;;;;;1927146;28;8322;-64
2023/10/23 02:04:30;;;;;;;;;;;;;;;;;;1928036;28;7152;-65
2023/10/23 02:05:28;;;;;;;;;;;;;;;;;;1919594;28;7108;-64
2023/10/23 02:06:25;;;;;;;;;;;;;;;;;;1925887;28;7029;-64
2023/10/23 02:07:23;;;;;;;;;;;;;;;;;;1927306;28;7049;-66
2023/10/23 02:08:23;;;;;;;;;;;;;;;;;;1927730;28;7017;-64
2023/10/23 02:09:21;;;;;;;;;;;;;;;;;;1927588;28;7049;-64
2023/10/23 02:10:19;;;;;;;;;;;;;;;;;;1927730;28;7100;-64
2023/10/23 02:11:16;;;;;;;;;;;;;;;;;;1927583;28;7018;-65
2023/10/23 02:12:13;;;;;;;;;;;;;;;;;;1927367;28;7041;-66
2023/10/23 02:13:11;;;;;;;;;;;;;;;;;;1926329;28;8025;-65
2023/10/23 02:14:08;;;;;;;;;;;;;;;;;;1925949;28;7038;-64
2023/10/23 02:15:06;;;;;;;;;;;;;;;;;;1927685;28;7128;-64
2023/10/23 02:16:03;;;;;;;;;;;;;;;;;;1927106;28;7323;-64
2023/10/23 02:17:01;;;;;;;;;;;;;;;;;;1919627;28;7005;-64
2023/10/23 02:17:58;;;;;;;;;;;;;;;;;;1917829;28;7009;-64
2023/10/23 02:18:56;;;;;;;;;;;;;;;;;;1926292;28;7109;-65
2023/10/23 02:19:53;;;;;;;;;;;;;;;;;;1927122;28;7112;-64
2023/10/23 02:20:51;;;;;;;;;;;;;;;;;;1927061;28;7046;-64
2023/10/23 02:21:51;;;;;;;;;;;;;;;;;;1927835;28;7025;-64
2023/10/23 02:22:49;;;;;;;;;;;;;;;;;;1926338;28;7009;-64
2023/10/23 02:23:46;;;;;;;;;;;;;;;;;;1927334;28;7150;-65
2023/10/23 02:24:53;;;;;;;;;;;;;;;;;;1919051;28;7367;-65
2023/10/23 02:25:50;;;;;;;;;;;;;;;;;;1919027;28;7017;-64
2023/10/23 02:26:48;;;;;;;;;;;;;;;;;;1927946;28;7013;-65
2023/10/23 02:27:45;;;;;;;;;;;;;;;;;;1927309;28;7021;-64
2023/10/23 02:28:42;;;;;;;;;;;;;;;;;;1926705;28;7096;-65
2023/10/23 02:29:40;;;;;;;;;;;;;;;;;;1926980;28;7124;-64
2023/10/23 02:30:38;;;;;;;;;;;;;;;;;;1927401;28;7327;-64
2023/10/23 02:31:36;;;;;;;;;;;;;;;;;;1925975;28;7124;-64
2023/10/23 02:32:34;;;;;;;;;;;;;;;;;;1925469;28;7010;-64
2023/10/23 02:33:31;;;;;;;;;;;;;;;;;;1927645;28;7028;-64
2023/10/23 02:34:29;;;;;;;;;;;;;;;;;;1927708;28;7168;-65
2023/10/23 02:35:26;;;;;;;;;;;;;;;;;;1928047;28;7009;-64
2023/10/23 02:36:24;;;;;;;;;;;;;;;;;;1927246;28;7014;-65
2023/10/23 02:37:21;;;;;;;;;;;;;;;;;;1927021;28;7005;-64
2023/10/23 02:38:19;;;;;;;;;;;;;;;;;;1927238;28;7541;-64
2023/10/23 02:39:16;;;;;;;;;;;;;;;;;;1927132;28;7013;-64
2023/10/23 02:40:13;;;;;;;;;;;;;;;;;;1927650;28;7009;-64
2023/10/23 02:41:11;;;;;;;;;;;;;;;;;;1926732;28;7017;-64
2023/10/23 02:42:08;;;;;;;;;;;;;;;;;;1927126;28;8014;-65
2023/10/23 02:43:06;;;;;;;;;;;;;;;;;;1927303;28;7050;-64
2023/10/23 02:44:04;;;;;;;;;;;;;;;;;;1924488;28;7025;-69
2023/10/23 02:45:02;;;;;;;;;;;;;;;;;;1927282;28;7143;-64
2023/10/23 02:46:04;;;;;;;;;;;;;;;;;;1927230;28;7054;-65
2023/10/23 02:47:02;;;;;;;;;;;;;;;;;;1926942;28;7144;-65
2023/10/23 02:48:00;;;;;;;;;;;;;;;;;;1929471;28;7009;-64
2023/10/23 02:48:57;;;;;;;;;;;;;;;;;;1927263;28;7961;-65
2023/10/23 02:49:55;;;;;;;;;;;;;;;;;;1926334;28;8069;-64
2023/10/23 02:50:53;;;;;;;;;;;;;;;;;;1926788;28;7122;-64
2023/10/23 02:51:50;;;;;;;;;;;;;;;;;;1926848;28;7005;-64
2023/10/23 02:52:48;;;;;;;;;;;;;;;;;;1927151;28;8023;-64
2023/10/23 02:53:46;;;;;;;;;;;;;;;;;;1925895;28;7223;-65
2023/10/23 02:54:43;;;;;;;;;;;;;;;;;;1927372;28;7009;-69
2023/10/23 02:55:41;;;;;;;;;;;;;;;;;;1926777;28;7009;-64
2023/10/23 02:56:38;;;;;;;;;;;;;;;;;;1927379;28;7354;-64
2023/10/23 02:57:35;;;;;;;;;;;;;;;;;;1926982;28;7343;-65
2023/10/23 02:58:35;;;;;;;;;;;;;;;;;;1927243;28;7016;-64
2023/10/23 02:59:33;;;;;;;;;;;;;;;;;;1927204;28;7112;-64
2023/10/23 03:00:30;;;;;;;;;;;;;;;;;;1927177;28;7033;-64
2023/10/23 03:01:28;;;;;;;;;;;;;;;;;;1927145;28;7057;-64
2023/10/23 03:02:25;;;;;;;;;;;;;;;;;;1927114;28;8093;-64
2023/10/23 03:03:23;;;;;;;;;;;;;;;;;;1927409;28;7107;-65
2023/10/23 03:04:20;;;;;;;;;;;;;;;;;;1924452;28;8118;-65
2023/10/23 03:05:18;;;;;;;;;;;;;;;;;;1926808;28;7341;-64
2023/10/23 03:06:15;;;;;;;;;;;;;;;;;;1923266;28;7117;-65
2023/10/23 03:07:13;;;;;;;;;;;;;;;;;;1917692;28;7010;-64
2023/10/23 03:08:10;;;;;;;;;;;;;;;;;;1913752;28;7124;-65
2023/10/23 03:09:08;;;;;;;;;;;;;;;;;;1912242;28;7108;-64
2023/10/23 03:10:06;;;;;;;;;;;;;;;;;;1916421;28;7089;-65
2023/10/23 03:11:05;;;;;;;;;;;;;;;;;;1918959;28;7372;-64
2023/10/23 03:12:03;;;;;;;;;;;;;;;;;;1916890;28;7050;-65
2023/10/23 03:13:00;;;;;;;;;;;;;;;;;;1912163;28;7105;-64
2023/10/23 03:13:57;;;;;;;;;;;;;;;;;;1912251;28;7113;-64
2023/10/23 03:14:55;;;;;;;;;;;;;;;;;;1914036;28;7010;-64
2023/10/23 03:15:52;;;;;;;;;;;;;;;;;;1911353;28;7094;-64
2023/10/23 03:16:50;;;;;;;;;;;;;;;;;;1917797;28;7134;-64
2023/10/23 03:17:47;;;;;;;;;;;;;;;;;;1916748;28;8046;-64
2023/10/23 03:18:45;;;;;;;;;;;;;;;;;;1918583;28;7013;-64
2023/10/23 03:19:43;;;;;;;;;;;;;;;;;;1915247;28;8031;-65
2023/10/23 03:20:41;;;;;;;;;;;;;;;;;;1915774;28;7198;-64
2023/10/23 03:21:38;;;;;;;;;;;;;;;;;;1916206;28;7163;-64
2023/10/23 03:22:36;;;;;;;;;;;;;;;;;;1919796;28;7009;-64
2023/10/23 03:23:33;;;;;;;;;;;;;;;;;;1918329;28;7039;-64
2023/10/23 03:24:30;;;;;;;;;;;;;;;;;;1919096;28;7064;-64
2023/10/23 03:25:28;;;;;;;;;;;;;;;;;;1912212;28;8039;-64
2023/10/23 03:26:25;;;;;;;;;;;;;;;;;;1911978;28;7093;-64
2023/10/23 03:27:23;;;;;;;;;;;;;;;;;;1920220;28;7088;-63
2023/10/23 03:28:20;;;;;;;;;;;;;;;;;;1913730;28;7148;-65
2023/10/23 03:29:18;;;;;;;;;;;;;;;;;;1917152;28;7010;-64
2023/10/23 03:30:16;;;;;;;;;;;;;;;;;;1919124;28;7033;-65
2023/10/23 03:31:14;;;;;;;;;;;;;;;;;;1919349;28;7033;-64
2023/10/23 03:32:12;;;;;;;;;;;;;;;;;;1914280;28;7034;-64
2023/10/23 03:33:09;;;;;;;;;;;;;;;;;;1918454;28;7088;-64
2023/10/23 03:34:07;;;;;;;;;;;;;;;;;;1917974;28;7129;-64
2023/10/23 03:35:04;;;;;;;;;;;;;;;;;;1919444;28;8094;-64
2023/10/23 03:36:02;;;;;;;;;;;;;;;;;;1915983;28;7018;-64
2023/10/23 03:36:59;;;;;;;;;;;;;;;;;;1919730;28;7005;-65
2023/10/23 03:37:57;;;;;;;;;;;;;;;;;;1916581;28;8018;-65
2023/10/23 03:38:54;;;;;;;;;;;;;;;;;;1912405;28;7025;-64
2023/10/23 03:39:52;;;;;;;;;;;;;;;;;;1918785;28;7029;-64
2023/10/23 03:40:57;;;;;;;;;;;;;;;;;;1916032;28;7108;-64
2023/10/23 03:41:55;;;;;;;;;;;;;;;;;;1919101;28;7124;-63
2023/10/23 03:42:52;;;;;;;;;;;;;;;;;;1917398;28;8174;-64
2023/10/23 03:43:50;;;;;;;;;;;;;;;;;;1918605;28;7021;-64
2023/10/23 03:44:48;;;;;;;;;;;;;;;;;;1911576;28;7104;-64
2023/10/23 03:45:46;;;;;;;;;;;;;;;;;;1916241;28;7128;-68
2023/10/23 03:46:44;;;;;;;;;;;;;;;;;;1911452;28;7117;-65
2023/10/23 03:47:42;;;;;;;;;;;;;;;;;;1912762;28;7104;-64
2023/10/23 03:48:39;;;;;;;;;;;;;;;;;;1916168;28;7439;-64
2023/10/23 03:49:37;;;;;;;;;;;;;;;;;;1912325;28;8038;-64
2023/10/23 03:50:36;;;;;;;;;;;;;;;;;;1915865;28;7038;-64
2023/10/23 03:51:33;;;;;;;;;;;;;;;;;;1914122;28;7010;-65
2023/10/23 03:52:31;;;;;;;;;;;;;;;;;;1913936;28;7124;-65
2023/10/23 03:53:29;;;;;;;;;;;;;;;;;;1917664;28;7073;-64
2023/10/23 03:54:26;;;;;;;;;;;;;;;;;;1911459;28;7088;-65
2023/10/23 03:55:24;;;;;;;;;;;;;;;;;;1918150;28;7013;-64
2023/10/23 03:56:21;;;;;;;;;;;;;;;;;;1919854;28;7120;-64
2023/10/23 03:57:19;;;;;;;;;;;;;;;;;;1913556;28;7138;-64
2023/10/23 03:58:16;;;;;;;;;;;;;;;;;;1918526;28;7346;-64
2023/10/23 03:59:14;;;;;;;;;;;;;;;;;;1911778;28;7009;-64
2023/10/23 04:00:11;;;;;;;;;;;;;;;;;;1915022;28;7009;-64
2023/10/23 04:01:09;;;;;;;;;;;;;;;;;;1911945;28;7081;-64
2023/10/23 04:02:06;;;;;;;;;;;;;;;;;;1912292;28;7009;-65
2023/10/23 04:03:04;;;;;;;;;;;;;;;;;;1912059;28;7042;-65
2023/10/23 04:04:01;;;;;;;;;;;;;;;;;;1912305;28;7096;-65
2023/10/23 04:05:00;;;;;;;;;;;;;;;;;;1911960;28;8892;-64
2023/10/23 04:05:57;;;;;;;;;;;;;;;;;;1912249;28;7017;-63
2023/10/23 04:06:55;;;;;;;;;;;;;;;;;;1926397;28;7046;-64
2023/10/23 04:07:52;;;;;;;;;;;;;;;;;;1926543;28;7096;-64
2023/10/23 04:08:52;;;;;;;;;;;;;;;;;;1927078;28;7133;-63
2023/10/23 04:09:50;;;;;;;;;;;;;;;;;;1926949;28;7017;-65
2023/10/23 04:10:48;;;;;;;;;;;;;;;;;;1925946;28;7045;-64
2023/10/23 04:11:45;;;;;;;;;;;;;;;;;;1925503;28;7050;-64
2023/10/23 04:12:43;;;;;;;;;;;;;;;;;;1926288;28;8056;-65
2023/10/23 04:13:41;;;;;;;;;;;;;;;;;;1926243;28;7036;-65
2023/10/23 04:14:38;;;;;;;;;;;;;;;;;;1927234;28;7029;-64
2023/10/23 04:15:35;;;;;;;;;;;;;;;;;;1927231;28;7134;-64
2023/10/23 04:16:33;;;;;;;;;;;;;;;;;;1926527;28;7037;-65
2023/10/23 04:17:30;;;;;;;;;;;;;;;;;;1926306;28;7087;-64
2023/10/23 04:18:28;;;;;;;;;;;;;;;;;;1927150;28;7356;-64
2023/10/23 04:19:25;;;;;;;;;;;;;;;;;;1918282;28;8088;-65
2023/10/23 04:20:23;;;;;;;;;;;;;;;;;;1918731;28;7049;-64
2023/10/23 04:21:20;;;;;;;;;;;;;;;;;;1925088;28;8047;-64
2023/10/23 04:22:18;;;;;;;;;;;;;;;;;;1926494;28;7009;-65
2023/10/23 04:23:16;;;;;;;;;;;;;;;;;;1926457;28;7017;-65
2023/10/23 04:24:13;;;;;;;;;;;;;;;;;;1926663;28;7029;-65
2023/10/23 04:25:11;;;;;;;;;;;;;;;;;;1927311;28;7117;-64
2023/10/23 04:26:08;;;;;;;;;;;;;;;;;;1926841;28;7025;-64
2023/10/23 04:27:06;;;;;;;;;;;;;;;;;;1927896;28;7036;-64
2023/10/23 04:28:03;;;;;;;;;;;;;;;;;;1927845;28;8187;-65
2023/10/23 04:29:01;;;;;;;;;;;;;;;;;;1928337;28;7045;-64
2023/10/23 04:30:04;;;;;;;;;;;;;;;;;;1927792;28;7131;-65
2023/10/23 04:31:01;;;;;;;;;;;;;;;;;;1919943;28;7160;-64
2023/10/23 04:31:59;;;;;;;;;;;;;;;;;;1920265;28;7017;-64
2023/10/23 04:32:56;;;;;;;;;;;;;;;;;;1927444;28;7150;-64
2023/10/23 04:33:54;;;;;;;;;;;;;;;;;;1928602;28;7009;-64
2023/10/23 04:34:51;;;;;;;;;;;;;;;;;;1928681;28;7116;-64
2023/10/23 04:35:56;;;;;;;;;;;;;;;;;;1928182;28;8259;-65
2023/10/23 04:36:53;;;;;;;;;;;;;;;;;;1926597;28;7232;-64
2023/10/23 04:37:51;;;;;;;;;;;;;;;;;;1927126;28;7010;-64
2023/10/23 04:38:48;;;;;;;;;;;;;;;;;;1928564;28;7026;-64
2023/10/23 04:39:45;;;;;;;;;;;;;;;;;;1928646;28;7046;-64
2023/10/23 04:40:44;;;;;;;;;;;;;;;;;;1928484;28;7037;-64
2023/10/23 04:41:41;;;;;;;;;;;;;;;;;;1923543;28;7113;-64
2023/10/23 04:42:39;;;;;;;;;;;;;;;;;;1928316;28;7315;-65
2023/10/23 04:43:36;;;;;;;;;;;;;;;;;;1929017;28;7092;-64
2023/10/23 04:44:34;;;;;;;;;;;;;;;;;;1928513;28;7021;-64
2023/10/23 04:45:34;;;;;;;;;;;;;;;;;;1928171;28;8878;-64
2023/10/23 04:46:31;;;;;;;;;;;;;;;;;;1928323;28;7327;-64
2023/10/23 04:47:29;;;;;;;;;;;;;;;;;;1928917;28;7121;-64
2023/10/23 04:48:27;;;;;;;;;;;;;;;;;;1928616;28;7001;-64
2023/10/23 04:49:24;;;;;;;;;;;;;;;;;;1928279;28;7139;-65
2023/10/23 04:50:22;;;;;;;;;;;;;;;;;;1928827;28;8066;-64
2023/10/23 04:51:19;;;;;;;;;;;;;;;;;;1928236;28;7081;-64
2023/10/23 04:52:17;;;;;;;;;;;;;;;;;;1928179;28;7041;-65
2023/10/23 04:53:14;;;;;;;;;;;;;;;;;;1928890;28;7147;-65
2023/10/23 04:54:12;;;;;;;;;;;;;;;;;;1928675;28;7038;-64
2023/10/23 04:55:09;;;;;;;;;;;;;;;;;;1920318;28;7898;-65
2023/10/23 04:56:06;;;;;;;;;;;;;;;;;;1920145;28;7348;-64
2023/10/23 04:57:04;;;;;;;;;;;;;;;;;;1928166;28;8054;-65
2023/10/23 04:58:02;;;;;;;;;;;;;;;;;;1928147;28;8111;-65
2023/10/23 04:59:00;;;;;;;;;;;;;;;;;;1927157;28;7092;-64
2023/10/23 04:59:58;;;;;;;;;;;;;;;;;;1927199;28;7100;-65
2023/10/23 05:00:56;;;;;;;;;;;;;;;;;;1928538;28;7100;-64
2023/10/23 05:01:53;;;;;;;;;;;;;;;;;;1928229;28;7045;-64
2023/10/23 05:02:51;;;;;;;;;;;;;;;;;;1927925;28;7362;-65
2023/10/23 05:03:48;;;;;;;;;;;;;;;;;;1926569;28;7994;-64
2023/10/23 05:04:48;;;;;;;;;;;;;;;;;;1928186;28;7013;-64
2023/10/23 05:05:49;;;;;;;;;;;;;;;;;;1928870;28;7044;-65
2023/10/23 05:06:46;;;;;;;;;;;;;;;;;;1928416;28;7216;-64
2023/10/23 05:07:44;;;;;;;;;;;;;;;;;;1927874;28;7112;-64
2023/10/23 05:08:41;;;;;;;;;;;;;;;;;;1928704;28;8110;-64
2023/10/23 05:09:38;;;;;;;;;;;;;;;;;;1928242;28;7029;-64
2023/10/23 05:10:36;;;;;;;;;;;;;;;;;;1927694;28;7113;-64
2023/10/23 05:11:34;;;;;;;;;;;;;;;;;;1927953;28;7112;-64
2023/10/23 05:12:31;;;;;;;;;;;;;;;;;;1928522;28;7310;-65
2023/10/23 05:13:29;;;;;;;;;;;;;;;;;;1928007;28;7013;-64
2023/10/23 05:14:26;;;;;;;;;;;;;;;;;;1928439;28;8075;-64
2023/10/23 05:15:24;;;;;;;;;;;;;;;;;;1928681;28;7013;-65
2023/10/23 05:16:21;;;;;;;;;;;;;;;;;;1928313;28;7108;-65
2023/10/23 05:17:20;;;;;;;;;;;;;;;;;;1927919;28;7155;-64
2023/10/23 05:18:17;;;;;;;;;;;;;;;;;;1927810;28;7390;-64
2023/10/23 05:19:15;;;;;;;;;;;;;;;;;;1927473;28;7005;-64
2023/10/23 05:20:12;;;;;;;;;;;;;;;;;;1927890;28;7017;-63
2023/10/23 05:21:11;;;;;;;;;;;;;;;;;;1928586;28;7013;-64
2023/10/23 05:22:08;;;;;;;;;;;;;;;;;;1928731;28;7132;-64
2023/10/23 05:23:06;;;;;;;;;;;;;;;;;;1927191;28;7013;-64
2023/10/23 05:24:03;;;;;;;;;;;;;;;;;;1927756;28;8114;-64
2023/10/23 05:25:01;;;;;;;;;;;;;;;;;;1928571;28;7006;-63
2023/10/23 05:25:58;;;;;;;;;;;;;;;;;;1926925;28;7048;-64
2023/10/23 05:26:56;;;;;;;;;;;;;;;;;;1928103;28;8086;-65
2023/10/23 05:27:53;;;;;;;;;;;;;;;;;;1927876;28;7017;-66
2023/10/23 05:28:53;;;;;;;;;;;;;;;;;;1928829;28;7009;-63
2023/10/23 05:29:50;;;;;;;;;;;;;;;;;;1928136;28;7025;-64
2023/10/23 05:30:51;;;;;;;;;;;;;;;;;;1928201;28;7013;-64
2023/10/23 05:31:48;;;;;;;;;;;;;;;;;;1928165;28;7006;-65
2023/10/23 05:32:46;;;;;;;;;;;;;;;;;;1928271;28;8194;-64
2023/10/23 05:33:44;;;;;;;;;;;;;;;;;;1926753;28;7017;-64
2023/10/23 05:34:44;;;;;;;;;;;;;;;;;;1927327;28;8086;-64
2023/10/23 05:35:44;;;;;;;;;;;;;;;;;;1926428;28;7117;-65
2023/10/23 05:36:41;;;;;;;;;;;;;;;;;;1922806;28;7108;-64
2023/10/23 05:37:38;;;;;;;;;;;;;;;;;;1923300;28;7042;-65
2023/10/23 05:38:37;;;;;;;;;;;;;;;;;;1926424;28;7006;-64
2023/10/23 05:39:34;;;;;;;;;;;;;;;;;;1927421;28;7132;-63
2023/10/23 05:40:32;;;;;;;;;;;;;;;;;;1927598;28;7021;-64
2023/10/23 05:41:29;;;;;;;;;;;;;;;;;;1927501;28;7009;-64
2023/10/23 05:42:27;;;;;;;;;;;;;;;;;;1921208;28;7076;-65
2023/10/23 05:43:25;;;;;;;;;;;;;;;;;;1927438;28;7113;-64
2023/10/23 05:44:22;;;;;;;;;;;;;;;;;;1928357;28;7226;-65
2023/10/23 05:45:19;;;;;;;;;;;;;;;;;;1927699;28;7009;-65
2023/10/23 05:46:20;;;;;;;;;;;;;;;;;;1928176;28;7201;-64
2023/10/23 05:47:18;;;;;;;;;;;;;;;;;;1928239;28;7092;-65
2023/10/23 05:48:16;;;;;;;;;;;;;;;;;;1928339;28;7092;-65
2023/10/23 05:49:13;;;;;;;;;;;;;;;;;;1927755;28;7034;-65
2023/10/23 05:50:10;;;;;;;;;;;;;;;;;;1926322;28;7013;-65
2023/10/23 05:51:08;;;;;;;;;;;;;;;;;;1928607;28;7053;-64
2023/10/23 05:52:05;;;;;;;;;;;;;;;;;;1927669;28;7033;-65
2023/10/23 05:53:03;;;;;;;;;;;;;;;;;;1928131;28;7128;-64
2023/10/23 05:54:00;;;;;;;;;;;;;;;;;;1919914;28;8358;-65
2023/10/23 05:54:57;;;;;;;;;;;;;;;;;;1919747;28;7009;-65
2023/10/23 05:56:06;;;;;;;;;;;;;;;;;;1927841;28;7038;-65
2023/10/23 05:57:03;;;;;;;;;;;;;;;;;;1927995;28;7135;-65
2023/10/23 05:58:02;;;;;;;;;;;;;;;;;;1928781;28;7013;-64
2023/10/23 05:59:00;;;;;;;;;;;;;;;;;;1927608;28;8046;-65
2023/10/23 05:59:58;;;;;;;;;;;;;;;;;;1928172;28;7033;-64
2023/10/23 06:00:55;;;;;;;;;;;;;;;;;;1928586;28;7058;-64
2023/10/23 06:01:52;;;;;;;;;;;;;;;;;;1927708;28;7164;-64
2023/10/23 06:02:50;;;;;;;;;;;;;;;;;;1928149;28;7013;-65
2023/10/23 06:03:48;;;;;;;;;;;;;;;;;;1927693;28;7013;-65
2023/10/23 06:04:48;;;;;;;;;;;;;;;;;;1920726;28;7013;-65
2023/10/23 06:05:45;;;;;;;;;;;;;;;;;;1920524;28;7350;-66
2023/10/23 06:06:43;;;;;;;;;;;;;;;;;;1927987;28;7160;-65
2023/10/23 06:07:41;;;;;;;;;;;;;;;;;;1926828;28;7050;-64
2023/10/23 06:08:39;;;;;;;;;;;;;;;;;;1928003;28;7025;-65
2023/10/23 06:09:36;;;;;;;;;;;;;;;;;;1926816;28;7081;-64
2023/10/23 06:10:41;;;;;;;;;;;;;;;;;;1928066;28;7080;-65
2023/10/23 06:11:38;;;;;;;;;;;;;;;;;;1920757;28;7218;-65
2023/10/23 06:12:36;;;;;;;;;;;;;;;;;;1914889;28;7252;-65
2023/10/23 06:13:33;;;;;;;;;;;;;;;;;;1918706;28;7121;-64
2023/10/23 06:14:31;;;;;;;;;;;;;;;;;;1920329;28;7017;-65
2023/10/23 06:15:28;;;;;;;;;;;;;;;;;;1927093;28;7082;-65
2023/10/23 06:16:26;;;;;;;;;;;;;;;;;;1927940;28;7096;-64
2023/10/23 06:17:23;;;;;;;;;;;;;;;;;;1928215;28;8122;-65
2023/10/23 06:18:20;;;;;;;;;;;;;;;;;;1927653;28;7196;-64
2023/10/23 06:19:18;;;;;;;;;;;;;;;;;;1926852;28;7009;-64
2023/10/23 06:20:15;;;;;;;;;;;;;;;;;;1927970;28;7013;-64
2023/10/23 06:21:13;;;;;;;;;;;;;;;;;;1927571;28;7049;-64
2023/10/23 06:22:10;;;;;;;;;;;;;;;;;;1927840;28;7041;-65
2023/10/23 06:23:08;;;;;;;;;;;;;;;;;;1927927;28;7223;-65
2023/10/23 06:24:05;;;;;;;;;;;;;;;;;;1927878;28;7005;-65
2023/10/23 06:25:04;;;;;;;;;;;;;;;;;;1928343;28;8030;-64
2023/10/23 06:26:01;;;;;;;;;;;;;;;;;;1927651;28;7096;-64
2023/10/23 06:26:59;;;;;;;;;;;;;;;;;;1928290;28;7017;-65
2023/10/23 06:27:56;;;;;;;;;;;;;;;;;;1928201;28;7013;-65
2023/10/23 06:28:54;;;;;;;;;;;;;;;;;;1927654;28;7365;-65
2023/10/23 06:29:52;;;;;;;;;;;;;;;;;;1927710;28;7113;-65
2023/10/23 06:30:49;;;;;;;;;;;;;;;;;;1927949;28;7409;-64
2023/10/23 06:31:47;;;;;;;;;;;;;;;;;;1927263;28;7009;-65
2023/10/23 06:32:44;;;;;;;;;;;;;;;;;;1928406;28;7152;-64
2023/10/23 06:33:46;;;;;;;;;;;;;;;;;;1927944;28;7054;-65
2023/10/23 06:34:44;;;;;;;;;;;;;;;;;;1928704;28;7132;-65
2023/10/23 06:35:44;;;;;;;;;;;;;;;;;;1928179;28;7092;-65
2023/10/23 06:36:42;;;;;;;;;;;;;;;;;;1919528;28;7097;-65
2023/10/23 06:37:40;;;;;;;;;;;;;;;;;;1919793;28;7021;-64
2023/10/23 06:38:37;;;;;;;;;;;;;;;;;;1926530;28;7050;-65
2023/10/23 06:39:35;;;;;;;;;;;;;;;;;;1927910;28;7045;-66
2023/10/23 06:40:33;;;;;;;;;;;;;;;;;;1927835;28;7100;-65
2023/10/23 06:41:32;;;;;;;;;;;;;;;;;;1928806;28;7017;-65